Brighton, Canada
Current Conditions -  °F | °C
As of 3:00 AM on Thursday 27 Nov 2014 (Local Time) from CYTR Reporting Station
Scattered Clouds Scattered Clouds  
Wind Chill: 17°   Ceiling: Unl
Heat Index: 25°   Visibility: 15mi
Dew Point: 19°   Wind: 7mph
Humidity: 80%   Direction: 330°NNW
Pressure: 30.06"   Gusts: NA
Location:  44.03°N, 77.73°W
Report Text: CYTR 270800Z 33006KT 15SM FEW030 SCT100 M04/M07 A3006 RMK SC2AC2 SLP185
Loading
Personal Weather Stations






























Interactive Weather Map New forecast layout! Learn more

10-Day Weather Forecast

Advertisements
Track Severe Weather on mobile